Time;durP1;ratioP1;P1;durP2;ratioP2;P2;SDS_P1;SDS_P2;PMS_P1;PMS_P2;Temp;Humidity;BMP_temperature;BMP_pressure;BME280_temperature;BME280_humidity;BME280_pressure;Samples;Min_cycle;Max_cycle;Signal;HPM_P1;HPM_P2
2023/01/25 00:00:39;;;;;;;23.93;17.10;;;3.80;99.90;;;;;;4904489;29;20440;-77
2023/01/25 00:03:05;;;;;;;23.37;17.33;;;3.90;99.90;;;;;;4905736;29;20578;-77
2023/01/25 00:05:30;;;;;;;18.50;15.60;;;3.90;99.90;;;;;;4907503;29;20194;-77
2023/01/25 00:07:56;;;;;;;22.13;16.40;;;3.70;99.90;;;;;;4909241;29;20218;-77
2023/01/25 00:10:21;;;;;;;24.73;17.90;;;3.70;99.90;;;;;;4908451;29;20592;-77
2023/01/25 00:12:47;;;;;;;25.63;17.77;;;3.60;99.90;;;;;;4904711;29;20195;-77
2023/01/25 00:15:12;;;;;;;22.83;17.27;;;3.60;99.90;;;;;;4902954;29;20204;-77
2023/01/25 00:17:38;;;;;;;24.57;17.67;;;3.60;99.90;;;;;;4901251;29;20207;-76
2023/01/25 00:20:04;;;;;;;24.47;17.10;;;3.60;99.90;;;;;;4899521;29;20193;-76
2023/01/25 00:22:30;;;;;;;32.03;19.17;;;3.60;99.90;;;;;;4900393;29;20176;-76
2023/01/25 00:24:55;;;;;;;24.13;17.03;;;3.60;99.90;;;;;;4902208;29;20443;-76
2023/01/25 00:27:21;;;;;;;22.73;17.93;;;3.70;99.90;;;;;;4912509;29;20226;-76
2023/01/25 00:29:47;;;;;;;22.90;16.53;;;3.80;99.90;;;;;;4908882;29;20222;-76
2023/01/25 00:32:12;;;;;;;28.53;18.70;;;3.90;99.90;;;;;;4906622;29;20306;-76
2023/01/25 00:34:44;;;;;;;23.97;18.40;;;3.80;99.90;;;;;;4908436;29;20437;-76
2023/01/25 00:37:13;;;;;;;25.07;18.60;;;3.70;99.90;;;;;;4905395;29;20250;-76
2023/01/25 00:39:39;;;;;;;25.23;18.97;;;3.60;99.90;;;;;;4906120;29;20873;-75
2023/01/25 00:42:08;;;;;;;25.97;18.77;;;3.60;99.90;;;;;;4913848;29;20454;-79
2023/01/25 00:44:34;;;;;;;23.90;18.37;;;3.60;99.90;;;;;;4917307;29;20206;-79
2023/01/25 00:47:00;;;;;;;23.30;16.63;;;3.60;99.90;;;;;;4917415;29;20435;-79
2023/01/25 00:49:26;;;;;;;24.53;18.70;;;3.60;99.90;;;;;;4917077;29;20564;-79
2023/01/25 00:51:53;;;;;;;33.53;19.80;;;3.60;99.90;;;;;;4915348;29;20190;-78
2023/01/25 00:54:19;;;;;;;31.83;19.67;;;3.60;99.90;;;;;;4912485;29;20451;-76
2023/01/25 00:56:45;;;;;;;27.67;18.47;;;3.70;99.90;;;;;;4911680;29;20514;-76
2023/01/25 00:59:12;;;;;;;27.43;18.20;;;3.80;99.90;;;;;;4909592;29;20443;-76
2023/01/25 01:01:38;;;;;;;28.30;20.70;;;3.80;99.90;;;;;;4907982;29;20216;-76
2023/01/25 01:04:04;;;;;;;29.20;19.50;;;3.70;99.90;;;;;;4906595;29;20536;-76
2023/01/25 01:06:30;;;;;;;21.80;16.50;;;3.70;99.90;;;;;;4909012;29;20453;-76
2023/01/25 01:08:55;;;;;;;28.00;18.90;;;3.70;99.90;;;;;;4913163;29;20273;-76
2023/01/25 01:11:21;;;;;;;26.70;19.83;;;3.80;99.90;;;;;;4882183;29;20192;-77
2023/01/25 01:13:46;;;;;;;30.73;20.30;;;3.70;99.90;;;;;;4915835;29;20190;-77
2023/01/25 01:16:12;;;;;;;24.60;18.10;;;3.60;99.90;;;;;;4916066;29;20212;-77
2023/01/25 01:18:41;;;;;;;29.27;19.20;;;3.60;99.90;;;;;;4914822;29;20188;-78
2023/01/25 01:21:09;;;;;;;26.40;19.73;;;3.60;99.90;;;;;;4913066;29;20447;-77
2023/01/25 01:23:36;;;;;;;30.37;20.00;;;3.60;99.90;;;;;;4898970;29;20937;-78
2023/01/25 01:26:03;;;;;;;28.00;19.30;;;3.60;99.90;;;;;;4906193;29;20458;-77
2023/01/25 01:28:29;;;;;;;31.10;19.20;;;3.60;99.90;;;;;;4906662;29;21000;-77
2023/01/25 01:31:00;;;;;;;28.67;20.60;;;3.50;99.90;;;;;;4908282;29;20889;-76
2023/01/25 01:33:25;;;;;;;28.17;19.00;;;3.50;99.90;;;;;;4909883;29;20514;-76
2023/01/25 01:35:51;;;;;;;26.17;18.97;;;3.60;99.90;;;;;;4909505;29;20851;-75
2023/01/25 01:38:16;;;;;;;27.63;18.83;;;3.60;99.90;;;;;;4913139;29;20187;-75
2023/01/25 01:40:46;;;;;;;27.50;18.77;;;3.60;99.90;;;;;;4911441;29;20194;-75
2023/01/25 01:43:21;;;;;;;27.93;20.43;;;3.50;99.90;;;;;;4894555;29;20541;-75
2023/01/25 01:45:46;;;;;;;30.87;19.47;;;3.50;99.90;;;;;;4901593;29;20447;-79
2023/01/25 01:48:29;;;;;;;29.10;19.47;;;3.30;99.90;;;;;;4901679;29;20477;-78
2023/01/25 01:51:04;;;;;;;30.00;18.30;;;3.30;99.90;;;;;;4903624;29;20199;-78
2023/01/25 01:53:32;;;;;;;29.00;19.97;;;3.30;99.90;;;;;;4905258;29;20465;-78
2023/01/25 01:56:04;;;;;;;28.60;18.33;;;3.30;99.90;;;;;;4906960;29;20488;-77
2023/01/25 01:58:31;;;;;;;29.43;21.87;;;3.40;99.90;;;;;;4907256;29;20436;-77
2023/01/25 02:00:56;;;;;;;31.27;20.83;;;3.40;99.90;;;;;;4910163;29;20520;-78
2023/01/25 02:03:23;;;;;;;27.73;19.83;;;3.40;99.90;;;;;;4911313;29;20535;-78
2023/01/25 02:05:57;;;;;;;31.40;20.63;;;3.40;99.90;;;;;;4905452;29;20191;-79
2023/01/25 02:08:23;;;;;;;34.10;20.23;;;3.30;99.90;;;;;;4915247;29;20475;-81
2023/01/25 02:10:49;;;;;;;31.03;18.70;;;3.30;99.90;;;;;;4915807;29;20564;-83
2023/01/25 02:13:17;;;;;;;31.27;20.40;;;3.30;99.90;;;;;;4913666;29;20447;-78
2023/01/25 02:15:49;;;;;;;28.93;19.17;;;3.30;99.90;;;;;;4904915;29;20813;-80
2023/01/25 02:18:16;;;;;;;36.20;22.80;;;3.30;99.90;;;;;;4905915;29;20532;-85
2023/01/25 02:20:44;;;;;;;31.50;19.97;;;3.30;99.90;;;;;;4909293;29;20433;-84
2023/01/25 02:23:36;;;;;;;27.93;19.70;;;3.30;99.90;;;;;;4906975;29;20882;-85
2023/01/25 02:26:04;;;;;;;30.07;19.93;;;3.30;99.90;;;;;;4895733;29;20466;-84
2023/01/25 02:29:02;;;;;;;30.00;18.67;;;3.30;99.90;;;;;;4903291;29;20488;-76
2023/01/25 02:31:28;;;;;;;28.20;19.20;;;3.20;99.90;;;;;;4899798;29;20491;-75
2023/01/25 02:33:53;;;;;;;28.97;19.73;;;3.10;99.90;;;;;;4899404;29;20452;-75
2023/01/25 02:36:24;;;;;;;33.03;21.40;;;3.10;99.90;;;;;;4880866;29;20199;-75
2023/01/25 02:39:06;;;;;;;27.37;19.83;;;3.20;99.90;;;;;;4904657;29;20186;-75
2023/01/25 02:41:34;;;;;;;29.37;17.90;;;3.30;99.90;;;;;;4899754;29;20506;-75
2023/01/25 02:44:04;;;;;;;27.43;17.97;;;3.30;99.90;;;;;;4900786;29;20814;-75
2023/01/25 02:46:35;;;;;;;28.17;18.57;;;3.30;99.90;;;;;;4909747;29;20435;-76
2023/01/25 02:49:02;;;;;;;30.10;18.07;;;3.20;99.90;;;;;;4906294;29;20473;-78
2023/01/25 02:51:30;;;;;;;29.63;19.57;;;3.10;99.90;;;;;;4906265;29;20492;-75
2023/01/25 02:53:56;;;;;;;34.73;17.77;;;3.10;99.90;;;;;;4907661;29;20814;-75
2023/01/25 02:56:22;;;;;;;26.33;18.53;;;3.20;99.90;;;;;;4910035;29;20483;-77
2023/01/25 02:58:48;;;;;;;28.33;19.10;;;3.20;99.90;;;;;;4910240;29;20821;-76
2023/01/25 03:01:14;;;;;;;28.20;16.63;;;3.10;99.90;;;;;;4911775;29;20426;-78
2023/01/25 03:03:40;;;;;;;28.27;19.50;;;3.10;99.90;;;;;;4909123;29;20479;-75
2023/01/25 03:06:06;;;;;;;29.77;19.43;;;3.00;99.90;;;;;;4909661;29;20479;-76
2023/01/25 03:08:33;;;;;;;32.80;18.30;;;3.00;99.90;;;;;;4910549;29;20483;-77
2023/01/25 03:11:00;;;;;;;26.73;18.50;;;3.10;99.90;;;;;;4910920;29;20486;-76
2023/01/25 03:13:26;;;;;;;28.40;18.67;;;3.20;99.90;;;;;;4912990;29;20966;-76
2023/01/25 03:15:58;;;;;;;33.90;19.80;;;3.10;99.90;;;;;;4914002;29;20519;-76
2023/01/25 03:18:23;;;;;;;28.33;19.43;;;3.00;99.90;;;;;;4913263;29;20741;-75
2023/01/25 03:20:49;;;;;;;32.40;19.07;;;3.00;99.90;;;;;;4914066;29;20530;-75
2023/01/25 03:23:15;;;;;;;30.50;19.33;;;3.00;99.90;;;;;;4913328;29;20195;-75
2023/01/25 03:25:40;;;;;;;29.97;20.23;;;3.00;99.90;;;;;;4916112;29;20438;-74
2023/01/25 03:28:06;;;;;;;27.13;19.23;;;3.00;99.90;;;;;;4913093;29;20202;-74
2023/01/25 03:30:31;;;;;;;32.90;20.13;;;3.00;99.90;;;;;;4913364;29;20179;-74
2023/01/25 03:32:57;;;;;;;28.30;19.40;;;3.00;99.90;;;;;;4901085;29;20192;-75
2023/01/25 03:35:22;;;;;;;29.53;17.80;;;3.00;99.90;;;;;;4900373;29;20185;-76
2023/01/25 03:37:48;;;;;;;31.47;19.80;;;3.10;99.90;;;;;;4902723;29;20201;-75
2023/01/25 03:40:13;;;;;;;31.00;19.83;;;3.10;99.90;;;;;;4906411;29;20184;-75
2023/01/25 05:30:29;;;;;;;24.90;14.70;;;2.70;99.90;;;;;;5893177;23;20441;-73
2023/01/25 05:32:55;;;;;;;25.57;15.37;;;2.60;99.90;;;;;;4910478;29;20455;-75
2023/01/25 05:35:20;;;;;;;25.93;14.90;;;2.70;99.90;;;;;;4908431;29;20191;-78
2023/01/25 05:37:46;;;;;;;25.50;14.57;;;2.70;99.90;;;;;;4906698;29;20285;-81
2023/01/25 05:40:12;;;;;;;20.87;11.70;;;2.80;99.90;;;;;;4904741;29;20184;-82
2023/01/25 05:42:38;;;;;;;23.57;12.50;;;2.70;99.90;;;;;;4912502;29;20719;-84
2023/01/25 05:45:04;;;;;;;25.17;14.07;;;2.80;99.90;;;;;;4902242;29;20894;-79
2023/01/25 05:47:29;;;;;;;26.80;14.50;;;2.70;99.90;;;;;;4906293;29;20289;-87
2023/01/25 05:49:55;;;;;;;26.23;14.27;;;2.70;99.90;;;;;;4901781;29;20990;-84
2023/01/25 05:52:20;;;;;;;25.70;14.10;;;2.60;99.90;;;;;;4901927;29;20632;-86
2023/01/25 05:54:47;;;;;;;26.17;14.47;;;2.60;99.90;;;;;;4892175;29;20194;-88
2023/01/25 05:57:13;;;;;;;22.50;13.47;;;2.60;99.90;;;;;;4912804;29;20604;-90
2023/01/25 05:59:39;;;;;;;32.53;15.63;;;2.60;99.90;;;;;;4910321;29;20450;-83
2023/01/25 06:02:04;;;;;;;27.27;14.63;;;2.70;99.90;;;;;;4908628;29;20859;-81
2023/01/25 06:04:30;;;;;;;22.30;13.43;;;2.70;99.90;;;;;;4907032;29;20662;-80
2023/01/25 06:06:56;;;;;;;26.33;14.73;;;2.70;99.90;;;;;;4905039;29;20233;-82
2023/01/25 06:09:22;;;;;;;25.50;14.00;;;2.70;99.90;;;;;;4905928;29;20250;-82
2023/01/25 06:11:48;;;;;;;25.90;13.57;;;2.80;99.90;;;;;;4906760;29;20202;-81
2023/01/25 06:14:14;;;;;;;30.37;15.03;;;2.80;99.90;;;;;;4915933;29;20462;-81
2023/01/25 06:16:40;;;;;;;24.37;14.43;;;2.80;99.90;;;;;;4903299;29;20453;-81
2023/01/25 06:19:07;;;;;;;20.87;12.70;;;2.80;99.90;;;;;;4900094;29;20506;-77
2023/01/25 06:21:36;;;;;;;29.20;15.87;;;3.00;99.90;;;;;;4908366;29;20490;-79
2023/01/25 06:24:03;;;;;;;27.87;13.73;;;3.00;99.90;;;;;;4911467;29;20530;-77
2023/01/25 06:26:28;;;;;;;22.87;13.50;;;3.00;99.90;;;;;;4905429;29;20440;-77
2023/01/25 06:28:54;;;;;;;22.27;13.47;;;3.00;99.90;;;;;;4906933;29;20983;-77
2023/01/25 06:31:19;;;;;;;29.80;14.13;;;3.00;99.90;;;;;;4905770;29;20324;-77
2023/01/25 06:33:50;;;;;;;30.20;15.27;;;3.00;99.90;;;;;;4906537;29;20191;-77
2023/01/25 06:36:18;;;;;;;31.00;16.10;;;3.00;99.90;;;;;;4906475;29;20184;-88
2023/01/25 06:38:47;;;;;;;27.77;14.60;;;3.00;99.90;;;;;;4902229;29;20445;-77
2023/01/25 06:41:13;;;;;;;22.50;13.07;;;2.90;99.90;;;;;;4915701;29;20436;-77
2023/01/25 06:43:38;;;;;;;27.70;15.00;;;3.00;99.90;;;;;;4917083;29;20476;-77
2023/01/25 06:46:06;;;;;;;23.73;13.73;;;2.90;99.90;;;;;;4911421;29;20242;-77
2023/01/25 06:48:32;;;;;;;27.17;15.07;;;3.00;99.90;;;;;;4904725;29;20627;-78
2023/01/25 06:51:04;;;;;;;26.53;14.97;;;3.00;99.90;;;;;;4903439;29;20441;-77
2023/01/25 06:53:31;;;;;;;27.80;15.03;;;3.00;99.90;;;;;;4910322;29;20471;-77
2023/01/25 06:55:59;;;;;;;26.80;15.10;;;2.90;99.90;;;;;;4906687;29;20441;-77
2023/01/25 06:58:25;;;;;;;26.87;15.20;;;2.90;99.90;;;;;;4891754;29;20447;-77
2023/01/25 07:00:51;;;;;;;27.93;13.83;;;2.90;99.90;;;;;;4910308;29;20510;-77
2023/01/25 07:03:17;;;;;;;30.97;15.53;;;2.90;99.90;;;;;;4912015;29;20534;-77
2023/01/25 07:05:42;;;;;;;30.43;16.57;;;2.90;99.90;;;;;;4913862;29;20231;-77
2023/01/25 07:08:08;;;;;;;29.53;14.77;;;3.00;99.90;;;;;;4898496;29;20215;-77
2023/01/25 07:10:33;;;;;;;27.77;15.30;;;3.00;99.90;;;;;;4898829;29;20532;-77
2023/01/25 07:12:59;;;;;;;28.73;15.67;;;2.90;99.90;;;;;;4912937;29;20347;-77
2023/01/25 07:15:24;;;;;;;32.70;16.90;;;3.00;99.90;;;;;;4901669;29;20198;-77
2023/01/25 07:17:50;;;;;;;30.80;17.70;;;3.00;99.90;;;;;;4903392;29;20534;-77
2023/01/25 07:20:16;;;;;;;35.20;18.10;;;3.00;99.90;;;;;;4904793;29;20194;-77
2023/01/25 07:22:41;;;;;;;31.10;16.00;;;2.90;99.90;;;;;;4906618;29;20247;-77
2023/01/25 07:25:07;;;;;;;28.50;15.80;;;3.00;99.90;;;;;;4907739;29;20196;-77
2023/01/25 07:27:33;;;;;;;32.93;19.00;;;2.90;99.90;;;;;;4908234;29;20188;-77
2023/01/25 07:29:59;;;;;;;30.33;16.57;;;2.90;99.90;;;;;;4903743;29;20491;-78
2023/01/25 07:32:25;;;;;;;30.90;15.70;;;3.00;99.90;;;;;;4901977;29;20502;-76
2023/01/25 07:34:51;;;;;;;30.50;16.37;;;3.00;99.90;;;;;;4907144;29;20614;-76
2023/01/25 07:37:16;;;;;;;28.97;15.40;;;3.00;99.90;;;;;;4916302;29;20470;-75
2023/01/25 07:39:48;;;;;;;35.80;18.13;;;3.00;99.90;;;;;;4905490;29;20184;-76
2023/01/25 07:42:14;;;;;;;31.07;14.23;;;3.00;99.90;;;;;;4910321;29;20188;-75
2023/01/25 07:44:39;;;;;;;31.50;16.10;;;3.00;99.90;;;;;;4912683;29;20458;-75
2023/01/25 07:47:05;;;;;;;31.80;15.27;;;3.00;99.90;;;;;;4909261;29;20653;-75
2023/01/25 07:49:30;;;;;;;35.27;16.20;;;3.00;99.90;;;;;;4909569;29;20306;-76
2023/01/25 07:51:56;;;;;;;27.50;13.53;;;3.00;99.90;;;;;;4907348;29;20815;-76
2023/01/25 07:54:21;;;;;;;32.10;15.03;;;3.00;99.90;;;;;;4905728;29;20196;-76
2023/01/25 07:56:48;;;;;;;31.67;14.87;;;3.00;99.90;;;;;;4904094;29;20196;-76
2023/01/25 07:59:14;;;;;;;27.40;14.67;;;3.00;99.90;;;;;;4907302;29;20649;-77
2023/01/25 08:01:40;;;;;;;32.70;14.30;;;3.00;99.90;;;;;;4907870;29;20435;-77
2023/01/25 08:04:06;;;;;;;26.80;14.20;;;3.00;99.90;;;;;;4898945;29;20440;-77
2023/01/25 08:06:34;;;;;;;30.30;15.47;;;3.10;99.90;;;;;;4915181;29;20197;-77
2023/01/25 08:09:11;;;;;;;31.83;15.23;;;3.10;99.90;;;;;;4897215;29;20476;-77
2023/01/25 08:11:36;;;;;;;39.07;17.90;;;3.00;99.90;;;;;;4910998;29;21000;-77
2023/01/25 08:14:02;;;;;;;36.57;16.53;;;3.00;99.90;;;;;;4910363;29;20438;-77
2023/01/25 08:16:29;;;;;;;31.83;16.60;;;3.00;99.90;;;;;;4912544;29;20510;-77
2023/01/25 08:18:57;;;;;;;31.33;16.23;;;3.00;99.90;;;;;;4910808;29;20595;-77
2023/01/25 08:21:27;;;;;;;28.67;16.70;;;3.00;99.90;;;;;;4912415;29;20439;-77
2023/01/25 08:23:53;;;;;;;28.47;14.73;;;3.00;99.90;;;;;;4907257;29;20901;-77
2023/01/25 08:26:19;;;;;;;27.80;15.80;;;3.00;99.90;;;;;;4905584;29;20565;-77
2023/01/25 08:28:45;;;;;;;32.47;17.73;;;3.20;99.90;;;;;;4905124;29;20223;-77
2023/01/25 08:31:18;;;;;;;40.60;17.10;;;3.20;99.90;;;;;;4903379;29;20479;-77
2023/01/25 08:33:45;;;;;;;33.47;17.30;;;3.20;99.90;;;;;;4901695;29;20196;-77
2023/01/25 08:36:12;;;;;;;40.50;18.50;;;3.10;99.90;;;;;;4903041;29;20433;-77
2023/01/25 08:38:38;;;;;;;32.10;17.50;;;3.00;99.90;;;;;;4915713;29;20527;-78
2023/01/25 08:41:09;;;;;;;36.17;16.87;;;3.00;99.90;;;;;;4914050;29;20934;-78
2023/01/25 08:43:35;;;;;;;36.13;18.07;;;3.00;99.90;;;;;;4908547;29;20438;-78
2023/01/25 08:46:01;;;;;;;36.63;17.30;;;3.00;99.90;;;;;;4892951;29;20455;-77
2023/01/25 08:48:27;;;;;;;44.50;19.37;;;2.90;99.90;;;;;;4894616;29;20475;-77
2023/01/25 08:50:52;;;;;;;37.20;17.17;;;2.90;99.90;;;;;;4912930;29;20562;-78
2023/01/25 08:53:18;;;;;;;36.90;18.70;;;2.90;99.90;;;;;;4912926;29;20279;-78
2023/01/25 08:55:44;;;;;;;32.63;16.30;;;3.00;99.90;;;;;;4903630;29;20196;-78
2023/01/25 08:58:15;;;;;;;34.73;18.73;;;3.00;99.90;;;;;;4901634;29;20673;-78
2023/01/25 09:00:41;;;;;;;35.60;16.80;;;3.00;99.90;;;;;;4916894;29;20536;-78
2023/01/25 09:03:07;;;;;;;31.73;15.40;;;3.00;99.90;;;;;;4917414;29;20531;-78
2023/01/25 09:05:34;;;;;;;30.53;16.03;;;3.00;99.90;;;;;;4911998;29;20467;-78
2023/01/25 09:08:00;;;;;;;29.97;14.07;;;3.00;99.90;;;;;;4905884;29;20430;-78
2023/01/25 09:10:26;;;;;;;35.77;17.30;;;3.00;99.90;;;;;;4907353;29;20508;-78
2023/01/25 09:12:52;;;;;;;33.13;17.03;;;3.10;99.90;;;;;;4908946;29;20521;-78
2023/01/25 09:15:17;;;;;;;33.10;16.77;;;3.00;99.90;;;;;;4911087;29;20636;-78
2023/01/25 09:17:43;;;;;;;35.40;18.20;;;3.00;99.90;;;;;;4907725;29;20196;-77
2023/01/25 09:20:09;;;;;;;33.77;17.60;;;3.00;99.90;;;;;;4907104;29;20187;-78
2023/01/25 09:22:35;;;;;;;36.50;17.37;;;3.10;99.90;;;;;;4903474;29;20523;-78
2023/01/25 09:25:00;;;;;;;39.47;17.23;;;3.10;99.90;;;;;;4901970;29;20452;-77
2023/01/25 09:27:26;;;;;;;36.63;16.87;;;3.00;99.90;;;;;;4910389;29;20203;-77
2023/01/25 09:29:51;;;;;;;39.40;18.37;;;3.10;99.90;;;;;;4900627;29;20287;-77
2023/01/25 09:32:17;;;;;;;32.80;16.53;;;3.10;99.90;;;;;;4912827;29;20239;-77
2023/01/25 09:34:43;;;;;;;40.37;20.03;;;3.10;99.90;;;;;;4904889;29;20208;-77
2023/01/25 09:37:14;;;;;;;34.43;16.17;;;3.10;99.90;;;;;;4912251;29;20213;-77
2023/01/25 09:39:40;;;;;;;44.97;19.33;;;3.10;99.90;;;;;;4908304;29;20450;-77
2023/01/25 09:42:34;;;;;;;38.60;19.57;;;3.10;99.90;;;;;;4910278;29;20554;-77
2023/01/25 09:45:05;;;;;;;39.53;17.77;;;3.10;99.90;;;;;;4913127;29;20279;-77
2023/01/25 09:47:39;;;;;;;37.50;16.97;;;3.10;99.90;;;;;;4907577;29;20430;-77
2023/01/25 09:50:23;;;;;;;34.03;16.47;;;3.10;99.90;;;;;;4905913;29;20825;-77
2023/01/25 09:53:06;;;;;;;34.87;17.53;;;3.10;99.90;;;;;;4913738;29;20473;-77
2023/01/25 09:55:32;;;;;;;34.00;17.50;;;3.10;99.90;;;;;;4918290;29;20465;-76
2023/01/25 09:58:01;;;;;;;46.53;20.33;;;3.10;99.90;;;;;;4916508;29;20435;-77
2023/01/25 10:00:35;;;;;;;40.97;20.43;;;3.00;99.90;;;;;;4914403;29;20441;-77
2023/01/25 10:03:13;;;;;;;36.67;18.60;;;3.10;99.90;;;;;;4906844;29;20431;-76
2023/01/25 10:05:45;;;;;;;29.13;16.27;;;3.10;99.90;;;;;;4911034;29;20446;-77
2023/01/25 10:08:19;;;;;;;37.27;17.93;;;3.10;99.90;;;;;;4910608;29;20476;-77
2023/01/25 10:10:49;;;;;;;39.80;18.40;;;3.10;99.90;;;;;;4910801;29;20439;-77
2023/01/25 10:13:18;;;;;;;38.40;17.30;;;3.10;99.90;;;;;;4908777;29;20847;-77
2023/01/25 10:15:49;;;;;;;34.93;19.50;;;3.00;99.90;;;;;;4904219;29;20438;-77
2023/01/25 10:18:53;;;;;;;40.87;19.40;;;3.00;99.90;;;;;;4885245;29;20448;-77
2023/01/25 10:21:39;;;;;;;45.43;19.07;;;3.00;99.90;;;;;;4903423;29;20446;-77
2023/01/25 10:24:26;;;;;;;40.93;18.23;;;3.00;99.90;;;;;;4900805;29;21008;-77
2023/01/25 10:26:56;;;;;;;26.37;15.57;;;3.00;99.90;;;;;;4910106;29;20432;-78
2023/01/25 10:29:26;;;;;;;25.57;14.63;;;3.10;99.90;;;;;;4913553;29;20486;-77
2023/01/25 10:32:08;;;;;;;40.90;18.03;;;3.10;99.90;;;;;;4911369;29;20503;-77
2023/01/25 10:34:44;;;;;;;35.40;18.30;;;3.10;99.90;;;;;;4907238;29;20454;-77
2023/01/25 10:37:18;;;;;;;33.83;16.73;;;3.10;99.90;;;;;;4907805;29;20439;-77
2023/01/25 10:39:58;;;;;;;33.03;16.87;;;3.10;99.90;;;;;;4888642;29;20932;-77
2023/01/25 10:42:26;;;;;;;26.90;16.00;;;3.10;99.90;;;;;;4906618;29;20532;-77
2023/01/25 10:44:51;;;;;;;30.63;15.93;;;3.10;99.90;;;;;;4914992;29;20577;-77
2023/01/25 10:47:23;;;;;;;36.00;17.10;;;3.20;99.90;;;;;;4916259;29;20463;-77
2023/01/25 10:49:56;;;;;;;38.70;16.43;;;3.20;99.90;;;;;;4917386;29;20582;-78
2023/01/25 10:52:30;;;;;;;31.83;16.57;;;3.10;99.90;;;;;;4901213;29;20463;-77
2023/01/25 10:55:16;;;;;;;30.40;15.70;;;3.10;99.90;;;;;;4905057;29;20442;-76
2023/01/25 10:57:54;;;;;;;33.97;18.37;;;3.00;99.90;;;;;;4904345;29;20442;-77
2023/01/25 11:00:28;;;;;;;35.60;18.43;;;3.00;99.90;;;;;;4905980;29;20446;-76
2023/01/25 11:02:54;;;;;;;35.40;17.70;;;3.00;99.90;;;;;;4908150;29;20522;-76
2023/01/25 11:05:40;;;;;;;42.83;16.83;;;3.00;99.90;;;;;;4905980;29;20854;-76
2023/01/25 11:08:30;;;;;;;43.27;19.37;;;3.10;99.90;;;;;;4904088;29;20216;-76
2023/01/25 11:10:57;;;;;;;37.93;20.00;;;3.10;99.90;;;;;;4902389;29;20477;-75
2023/01/25 11:13:28;;;;;;;43.17;20.10;;;3.10;99.90;;;;;;4913330;29;20498;-75
2023/01/25 11:16:09;;;;;;;43.63;20.70;;;3.20;99.90;;;;;;4904250;29;20533;-75
2023/01/25 11:18:34;;;;;;;43.50;21.30;;;3.20;99.90;;;;;;4903044;29;20457;-75
2023/01/25 11:21:03;;;;;;;41.23;20.20;;;3.20;99.90;;;;;;4915395;29;20447;-76
2023/01/25 11:23:30;;;;;;;43.90;22.37;;;3.20;99.90;;;;;;4906485;29;20204;-76
2023/01/25 11:26:19;;;;;;;39.10;20.63;;;3.20;99.90;;;;;;4904596;29;20525;-76
2023/01/25 11:28:48;;;;;;;44.03;19.97;;;3.20;99.90;;;;;;4906687;29;20543;-76
2023/01/25 11:31:21;;;;;;;40.57;20.30;;;3.20;99.90;;;;;;4908597;29;20475;-77
2023/01/25 11:33:47;;;;;;;43.47;19.63;;;3.30;99.90;;;;;;4910385;29;20475;-77
2023/01/25 11:36:32;;;;;;;41.47;20.50;;;3.30;99.90;;;;;;4911558;29;20878;-77
2023/01/25 11:39:19;;;;;;;39.53;19.00;;;3.30;99.90;;;;;;4901852;29;20257;-77
2023/01/25 11:42:06;;;;;;;44.53;20.67;;;3.20;99.90;;;;;;4915518;29;20442;-77
2023/01/25 11:44:53;;;;;;;45.70;20.53;;;3.10;99.90;;;;;;4917231;29;20430;-77
2023/01/25 11:47:31;;;;;;;41.70;19.60;;;3.10;99.90;;;;;;4901674;29;20439;-78
2023/01/25 11:50:09;;;;;;;42.53;21.70;;;3.20;99.90;;;;;;4916309;29;20480;-77
2023/01/25 11:53:15;;;;;;;41.10;19.50;;;3.10;99.90;;;;;;4909369;29;20791;-78
2023/01/25 11:55:59;;;;;;;38.63;18.60;;;3.10;99.90;;;;;;4912723;29;20443;-78
2023/01/25 11:58:55;;;;;;;37.20;18.17;;;3.10;99.90;;;;;;4901634;29;20454;-78
2023/01/25 12:01:33;;;;;;;39.47;18.50;;;3.10;99.90;;;;;;4908473;29;20462;-78
2023/01/25 12:04:32;;;;;;;36.60;19.33;;;3.00;99.90;;;;;;4906826;29;20939;-78
2023/01/25 12:07:05;;;;;;;40.23;19.87;;;3.00;99.90;;;;;;4887679;29;20923;-77
2023/01/25 12:09:49;;;;;;;46.53;21.87;;;3.00;99.90;;;;;;4903028;29;20566;-78
2023/01/25 12:12:44;;;;;;;35.33;17.93;;;3.10;99.90;;;;;;4902488;29;20432;-78
2023/01/25 12:15:37;;;;;;;43.00;22.17;;;3.00;99.90;;;;;;4904348;29;20969;-77
2023/01/25 12:18:34;;;;;;;47.90;20.83;;;3.00;99.90;;;;;;4906280;29;20443;-78
2023/01/25 12:21:04;;;;;;;32.83;16.73;;;3.10;99.90;;;;;;4907874;29;20796;-77
2023/01/25 12:23:36;;;;;;;33.87;18.50;;;3.20;99.90;;;;;;4910118;29;20507;-78
2023/01/25 12:26:27;;;;;;;31.33;16.60;;;3.20;99.90;;;;;;4910717;29;20434;-77
2023/01/25 12:29:02;;;;;;;32.60;17.23;;;3.10;99.90;;;;;;4913308;29;21017;-77
2023/01/25 12:31:33;;;;;;;31.23;16.83;;;3.10;99.90;;;;;;4914971;29;20529;-77
2023/01/25 12:34:03;;;;;;;40.43;18.50;;;3.10;99.90;;;;;;4917161;29;20478;-78
2023/01/25 12:36:43;;;;;;;34.20;18.70;;;3.10;99.90;;;;;;4918608;29;20520;-76
2023/01/25 12:39:13;;;;;;;37.70;18.27;;;3.10;99.90;;;;;;4898331;29;20481;-77
2023/01/25 12:41:39;;;;;;;40.27;19.00;;;3.10;99.90;;;;;;4903051;29;20555;-77
2023/01/25 12:44:16;;;;;;;37.27;20.57;;;3.20;99.90;;;;;;4908974;29;20851;-78
2023/01/25 12:47:06;;;;;;;38.43;19.00;;;3.20;99.90;;;;;;4907037;29;20841;-77
2023/01/25 12:49:51;;;;;;;34.07;19.47;;;3.20;99.90;;;;;;4912748;29;20467;-76
2023/01/25 12:52:48;;;;;;;36.00;17.90;;;3.20;99.90;;;;;;4893953;29;20534;-76
2023/01/25 12:55:15;;;;;;;36.83;18.97;;;3.20;99.90;;;;;;4907041;29;20446;-76
2023/01/25 12:57:59;;;;;;;35.43;18.30;;;3.20;99.90;;;;;;4914061;29;20782;-76
2023/01/25 13:00:53;;;;;;;30.77;15.77;;;3.10;99.90;;;;;;4903423;29;20959;-76
2023/01/25 13:03:46;;;;;;;30.80;16.00;;;3.20;99.90;;;;;;4902334;29;20443;-76
2023/01/25 13:06:37;;;;;;;30.07;16.20;;;3.20;99.90;;;;;;4916613;29;20439;-76
2023/01/25 13:09:15;;;;;;;28.50;16.33;;;3.10;99.90;;;;;;4917098;29;20974;-75
2023/01/25 13:11:43;;;;;;;27.63;16.10;;;3.00;99.90;;;;;;4915575;29;20946;-76
2023/01/25 13:14:14;;;;;;;31.50;17.47;;;3.10;99.90;;;;;;4913430;29;20992;-76
2023/01/25 13:16:43;;;;;;;29.07;15.50;;;3.00;99.90;;;;;;4906996;29;20446;-75
2023/01/25 13:19:31;;;;;;;27.90;16.07;;;3.00;99.90;;;;;;4909301;29;20460;-76
2023/01/25 13:21:59;;;;;;;32.73;16.37;;;3.00;99.90;;;;;;4904243;29;20451;-76
2023/01/25 13:24:26;;;;;;;31.63;15.23;;;3.00;99.90;;;;;;4895891;29;20451;-76
2023/01/25 13:26:52;;;;;;;33.00;15.40;;;3.00;99.90;;;;;;4914540;29;20957;-76
2023/01/25 13:29:37;;;;;;;23.77;14.60;;;2.80;99.90;;;;;;4902594;29;20484;-77
2023/01/25 13:32:04;;;;;;;30.20;14.57;;;2.80;99.90;;;;;;4901125;29;20274;-77
2023/01/25 13:34:38;;;;;;;29.43;15.00;;;2.80;99.90;;;;;;4918294;29;21047;-77
2023/01/25 13:37:19;;;;;;;28.70;15.13;;;2.90;99.90;;;;;;4906303;29;20448;-77
2023/01/25 13:39:48;;;;;;;25.63;13.47;;;3.00;99.90;;;;;;4905034;29;20836;-77
2023/01/25 13:42:21;;;;;;;33.50;13.97;;;3.00;99.90;;;;;;4911283;29;20429;-77
2023/01/25 13:44:50;;;;;;;25.33;14.10;;;3.10;99.90;;;;;;4908266;29;20442;-76
2023/01/25 13:47:20;;;;;;;29.50;13.93;;;3.10;99.90;;;;;;4910720;29;20435;-76
2023/01/25 13:49:49;;;;;;;24.23;12.07;;;3.10;99.90;;;;;;4907770;29;21006;-77
2023/01/25 13:52:17;;;;;;;27.60;15.50;;;3.10;99.90;;;;;;4907726;29;20445;-77
2023/01/25 13:54:44;;;;;;;30.27;15.20;;;3.20;99.90;;;;;;4911812;29;20773;-76
2023/01/25 13:57:18;;;;;;;26.70;13.77;;;3.20;99.90;;;;;;4904030;29;20512;-76
2023/01/25 13:59:43;;;;;;;36.50;14.73;;;3.20;99.90;;;;;;4912740;29;20949;-76
2023/01/25 14:02:19;;;;;;;30.17;16.57;;;3.10;99.90;;;;;;4917479;29;20528;-76
2023/01/25 14:04:50;;;;;;;29.90;12.37;;;3.10;99.90;;;;;;4902278;29;20283;-76
2023/01/25 14:07:23;;;;;;;34.00;15.57;;;3.00;99.90;;;;;;4903450;29;20919;-77
2023/01/25 14:09:49;;;;;;;32.80;16.23;;;3.00;99.90;;;;;;4911140;29;20523;-77
2023/01/25 14:12:30;;;;;;;32.63;15.90;;;3.00;99.90;;;;;;4910690;29;20485;-76
2023/01/25 14:14:56;;;;;;;29.40;14.67;;;3.10;99.90;;;;;;4920287;29;20301;-78
2023/01/25 14:17:22;;;;;;;33.70;15.10;;;3.10;99.90;;;;;;4915772;29;20459;-76
2023/01/25 14:19:53;;;;;;;33.83;16.03;;;3.10;99.90;;;;;;4911559;29;20271;-78
2023/01/25 14:22:27;;;;;;;30.87;15.30;;;3.10;99.90;;;;;;4910765;29;20464;-77
2023/01/25 14:25:16;;;;;;;35.97;16.20;;;3.10;99.90;;;;;;4911957;29;20448;-78
2023/01/25 14:27:54;;;;;;;35.13;16.33;;;3.10;99.90;;;;;;4917327;29;20445;-77
2023/01/25 14:30:28;;;;;;;33.20;15.33;;;3.10;99.90;;;;;;4900868;29;20483;-77
2023/01/25 14:32:59;;;;;;;27.00;14.93;;;3.30;99.90;;;;;;4913071;29;20926;-78
2023/01/25 14:35:40;;;;;;;28.83;13.53;;;3.30;99.90;;;;;;4913942;29;20447;-75
2023/01/25 14:38:35;;;;;;;32.60;16.03;;;3.50;99.90;;;;;;4911255;29;20447;-76
2023/01/25 14:41:15;;;;;;;29.00;15.10;;;3.50;99.90;;;;;;4907352;29;20474;-77